Time;durP1;ratioP1;P1;durP2;ratioP2;P2;SDS_P1;SDS_P2;PMS_P1;PMS_P2;Temp;Humidity;BMP_temperature;BMP_pressure;BME280_temperature;BME280_humidity;BME280_pressure;Samples;Min_cycle;Max_cycle;Signal;HPM_P1;HPM_P2
2021/11/03 00:01:41;;;;;;;0.80;0.70;;;6.90;99.90;;;;;;5012320;28;20174;-67
2021/11/03 00:04:09;;;;;;;0.90;0.50;;;6.80;99.90;;;;;;5012480;28;20600;-67
2021/11/03 00:06:40;;;;;;;0.80;0.52;;;6.90;99.90;;;;;;5012179;28;20193;-67
2021/11/03 00:09:08;;;;;;;0.80;0.50;;;6.90;99.90;;;;;;5012358;28;20198;-67
2021/11/03 00:11:39;;;;;;;0.80;0.45;;;6.80;99.90;;;;;;5010940;28;20568;-68
2021/11/03 00:14:07;;;;;;;0.90;0.60;;;6.80;99.90;;;;;;5012081;28;20248;-66
2021/11/03 00:16:35;;;;;;;2.10;0.82;;;6.80;99.90;;;;;;5012063;28;20181;-67
2021/11/03 00:19:04;;;;;;;0.90;0.60;;;6.80;99.90;;;;;;5012023;28;20196;-66
2021/11/03 00:21:32;;;;;;;0.90;0.50;;;6.80;99.90;;;;;;5012249;28;20175;-66
2021/11/03 00:24:00;;;;;;;0.90;0.63;;;6.80;99.90;;;;;;5012153;28;20213;-66
2021/11/03 00:26:28;;;;;;;1.50;1.27;;;6.70;99.90;;;;;;5012697;28;20202;-67
2021/11/03 00:28:58;;;;;;;1.38;1.00;;;6.70;99.90;;;;;;5012994;28;20222;-67
2021/11/03 00:31:26;;;;;;;0.80;0.50;;;6.70;99.90;;;;;;5012903;28;20602;-67
2021/11/03 00:33:55;;;;;;;1.13;0.90;;;6.70;99.90;;;;;;5013072;28;20252;-66
2021/11/03 00:36:23;;;;;;;1.10;0.85;;;6.70;99.90;;;;;;5011813;28;20194;-67
2021/11/03 00:38:51;;;;;;;0.80;0.60;;;6.70;99.90;;;;;;5010195;28;20201;-66
2021/11/03 00:41:19;;;;;;;0.90;0.70;;;6.60;99.90;;;;;;5011626;28;20758;-66
2021/11/03 00:43:47;;;;;;;1.85;1.75;;;6.60;99.90;;;;;;5011490;28;20210;-66
2021/11/03 00:46:17;;;;;;;1.15;0.70;;;6.60;99.90;;;;;;5011810;28;20182;-67
2021/11/03 00:48:45;;;;;;;1.17;0.93;;;6.60;99.90;;;;;;5010492;28;20240;-67
2021/11/03 00:51:15;;;;;;;1.13;0.70;;;6.50;99.90;;;;;;5010743;28;20200;-66
2021/11/03 00:53:44;;;;;;;0.90;0.70;;;6.50;99.90;;;;;;5011144;28;20238;-66
2021/11/03 00:56:13;;;;;;;9.60;1.30;;;6.40;99.90;;;;;;5010561;28;20655;-66
2021/11/03 00:58:41;;;;;;;1.92;0.85;;;6.40;99.90;;;;;;5010226;28;20197;-65
2021/11/03 01:01:10;;;;;;;0.80;0.50;;;6.40;99.90;;;;;;5011992;28;20193;-65
2021/11/03 01:03:40;;;;;;;1.05;0.88;;;6.40;99.90;;;;;;5014194;28;20701;-67
2021/11/03 01:06:08;;;;;;;0.90;0.68;;;6.30;99.90;;;;;;5014403;28;20209;-65
2021/11/03 01:08:36;;;;;;;0.90;0.70;;;6.30;99.90;;;;;;5014070;28;20197;-67
2021/11/03 01:11:05;;;;;;;0.80;0.60;;;6.20;99.90;;;;;;5015738;28;20181;-66
2021/11/03 01:13:53;;;;;;;4.30;1.88;;;6.20;99.90;;;;;;5015678;28;20272;-65
2021/11/03 01:16:21;;;;;;;1.00;0.90;;;6.20;99.90;;;;;;5014158;28;20247;-65
2021/11/03 01:18:53;;;;;;;0.98;0.55;;;6.20;99.90;;;;;;5015405;28;20240;-66
2021/11/03 01:21:22;;;;;;;1.30;0.65;;;6.20;99.90;;;;;;5013858;28;20286;-65
2021/11/03 01:23:52;;;;;;;0.90;0.75;;;6.20;99.90;;;;;;5014750;28;20228;-66
2021/11/03 01:26:20;;;;;;;1.15;1.05;;;6.20;99.90;;;;;;5015230;28;20199;-67
2021/11/03 01:28:48;;;;;;;0.80;0.50;;;6.20;99.90;;;;;;5014385;28;20201;-67
2021/11/03 01:31:17;;;;;;;2.63;1.17;;;6.20;99.90;;;;;;5013953;28;20198;-67
2021/11/03 01:33:46;;;;;;;0.93;0.80;;;6.20;99.90;;;;;;5015097;28;20229;-67
2021/11/03 01:36:16;;;;;;;0.80;0.60;;;6.10;99.90;;;;;;5015374;28;20178;-67
2021/11/03 01:38:44;;;;;;;1.23;1.13;;;6.10;99.90;;;;;;5017268;28;20194;-67
2021/11/03 01:41:12;;;;;;;0.80;0.60;;;6.10;99.90;;;;;;5018607;28;20221;-67
2021/11/03 01:43:43;;;;;;;0.98;0.85;;;6.00;99.90;;;;;;5019973;28;20214;-67
2021/11/03 01:46:20;;;;;;;0.80;0.50;;;6.00;99.90;;;;;;5020330;28;20232;-67
2021/11/03 01:48:59;;;;;;;1.35;0.95;;;6.00;99.90;;;;;;5021380;28;20209;-66
2021/11/03 01:51:37;;;;;;;1.23;1.02;;;6.00;99.90;;;;;;5016893;28;20204;-66
2021/11/03 01:54:09;;;;;;;0.80;0.50;;;6.00;99.90;;;;;;5015083;28;20214;-66
2021/11/03 01:56:39;;;;;;;3.75;0.80;;;6.00;99.90;;;;;;5014162;28;20832;-65
2021/11/03 01:59:17;;;;;;;0.80;0.55;;;6.00;99.90;;;;;;5014206;28;20217;-65
2021/11/03 02:01:47;;;;;;;0.80;0.60;;;5.90;99.90;;;;;;5013061;28;20273;-65
2021/11/03 02:04:17;;;;;;;0.90;0.73;;;5.80;99.90;;;;;;5013215;28;20221;-65
2021/11/03 02:06:47;;;;;;;1.23;1.13;;;5.80;99.90;;;;;;5012755;28;20260;-65
2021/11/03 02:09:16;;;;;;;0.80;0.50;;;5.80;99.90;;;;;;5013208;28;20198;-66
2021/11/03 02:11:45;;;;;;;0.90;0.70;;;5.70;99.90;;;;;;5012796;28;20174;-66
2021/11/03 02:14:14;;;;;;;0.90;0.63;;;5.70;99.90;;;;;;5012389;28;20210;-66
2021/11/03 02:16:46;;;;;;;0.90;0.70;;;5.70;99.90;;;;;;5012735;28;20213;-66
2021/11/03 02:19:21;;;;;;;2.15;0.80;;;5.70;99.90;;;;;;5012872;28;20233;-66
2021/11/03 02:21:58;;;;;;;3.28;1.00;;;5.70;99.90;;;;;;5013987;28;20178;-65
2021/11/03 02:24:30;;;;;;;1.05;0.95;;;5.70;99.90;;;;;;5012832;28;20221;-66
2021/11/03 02:27:01;;;;;;;0.90;0.77;;;5.70;99.90;;;;;;5012834;28;20296;-66
2021/11/03 02:29:30;;;;;;;1.80;1.13;;;5.60;99.90;;;;;;5012720;28;20611;-66
2021/11/03 02:32:13;;;;;;;1.80;0.80;;;5.60;99.90;;;;;;5013880;28;20663;-66
2021/11/03 02:34:41;;;;;;;8.73;1.38;;;5.50;99.90;;;;;;5012701;28;20579;-66
2021/11/03 02:37:38;;;;;;;1.35;0.85;;;5.50;99.90;;;;;;5012373;28;20194;-66
2021/11/03 02:40:24;;;;;;;0.90;0.77;;;5.50;99.90;;;;;;5012649;28;20565;-66
2021/11/03 02:42:59;;;;;;;0.80;0.50;;;5.50;99.90;;;;;;5013730;28;20256;-66
2021/11/03 02:45:35;;;;;;;0.90;0.68;;;5.50;99.90;;;;;;5012534;28;20380;-66
2021/11/03 02:48:04;;;;;;;0.80;0.50;;;5.60;99.90;;;;;;5012427;28;20555;-66
2021/11/03 02:50:32;;;;;;;1.10;0.80;;;5.70;99.90;;;;;;5013470;28;20221;-65
2021/11/03 02:53:01;;;;;;;0.90;0.80;;;5.70;99.90;;;;;;5013872;28;20687;-66
2021/11/03 02:55:29;;;;;;;0.80;0.60;;;5.60;99.90;;;;;;5012011;28;20296;-66
2021/11/03 02:57:59;;;;;;;0.90;0.60;;;5.60;99.90;;;;;;5012267;28;20205;-66
2021/11/03 03:00:28;;;;;;;1.00;0.75;;;5.60;99.90;;;;;;5012154;28;20198;-66
2021/11/03 03:02:57;;;;;;;3.35;0.70;;;5.60;99.90;;;;;;5013342;28;20697;-64
2021/11/03 03:05:25;;;;;;;4.85;0.95;;;5.50;99.90;;;;;;5012010;28;20193;-65
2021/11/03 03:07:53;;;;;;;1.48;0.68;;;5.60;99.90;;;;;;5012382;28;20198;-66
2021/11/03 03:10:22;;;;;;;0.80;0.60;;;5.50;99.90;;;;;;5012392;28;20190;-65
2021/11/03 03:12:51;;;;;;;1.10;0.77;;;5.40;99.90;;;;;;5013296;28;20249;-66
2021/11/03 03:15:20;;;;;;;1.88;1.75;;;5.40;99.90;;;;;;5012738;28;20206;-66
2021/11/03 03:17:49;;;;;;;0.80;0.50;;;5.40;99.90;;;;;;5013367;28;20204;-66
2021/11/03 03:20:17;;;;;;;2.97;1.63;;;5.40;99.90;;;;;;5013803;28;20552;-66
2021/11/03 03:22:46;;;;;;;0.90;0.70;;;5.40;99.90;;;;;;5013868;28;20584;-66
2021/11/03 03:25:14;;;;;;;1.00;0.60;;;5.40;99.90;;;;;;5013354;28;20189;-66
2021/11/03 03:27:42;;;;;;;1.27;0.75;;;5.50;99.90;;;;;;5012297;28;20221;-65
2021/11/03 03:30:14;;;;;;;0.80;0.60;;;5.40;99.90;;;;;;5011591;28;20220;-65
2021/11/03 03:32:43;;;;;;;1.23;1.10;;;5.40;99.90;;;;;;5011691;28;20699;-64
2021/11/03 03:35:12;;;;;;;0.80;0.50;;;5.40;99.90;;;;;;5011336;28;20624;-65
2021/11/03 03:37:40;;;;;;;0.80;0.60;;;5.40;99.90;;;;;;5011299;28;20693;-66
2021/11/03 03:40:10;;;;;;;0.90;0.60;;;5.40;99.90;;;;;;5012924;28;20179;-66
2021/11/03 03:42:39;;;;;;;0.90;0.60;;;5.40;99.90;;;;;;5011372;28;20218;-65
2021/11/03 03:45:08;;;;;;;0.90;0.70;;;5.40;99.90;;;;;;5011423;28;20186;-65
2021/11/03 03:47:37;;;;;;;0.90;0.75;;;5.20;99.90;;;;;;5011119;28;20198;-66
2021/11/03 03:50:08;;;;;;;0.80;0.50;;;5.10;99.90;;;;;;5010959;28;20190;-66
2021/11/03 03:52:37;;;;;;;1.15;0.90;;;5.10;99.90;;;;;;5011193;28;20789;-66
2021/11/03 03:55:07;;;;;;;1.85;0.70;;;5.00;99.90;;;;;;5011258;28;20210;-66
2021/11/03 03:57:37;;;;;;;1.10;0.60;;;5.00;99.90;;;;;;5012558;28;20170;-67
2021/11/03 04:00:09;;;;;;;1.00;0.60;;;5.00;99.90;;;;;;5011476;28;20658;-66
2021/11/03 04:02:42;;;;;;;0.80;0.60;;;5.00;99.90;;;;;;5013273;28;20221;-66
2021/11/03 04:05:16;;;;;;;1.88;1.15;;;5.00;99.90;;;;;;5012728;28;20666;-66
2021/11/03 04:07:45;;;;;;;1.08;0.70;;;5.00;99.90;;;;;;5013455;28;20186;-66
2021/11/03 04:10:14;;;;;;;2.28;1.02;;;5.00;99.90;;;;;;5012086;28;20179;-66
2021/11/03 04:12:43;;;;;;;0.90;0.63;;;5.00;99.90;;;;;;5011438;28;20247;-65
2021/11/03 04:15:14;;;;;;;1.00;0.68;;;5.00;99.90;;;;;;5010639;28;20186;-66
2021/11/03 04:17:43;;;;;;;2.08;0.77;;;5.00;99.90;;;;;;5012244;28;20530;-66
2021/11/03 04:20:15;;;;;;;1.00;0.60;;;5.00;99.90;;;;;;5010837;28;20190;-65
2021/11/03 04:22:45;;;;;;;1.30;1.05;;;5.00;99.90;;;;;;5011051;28;20691;-66
2021/11/03 04:25:14;;;;;;;1.10;0.88;;;4.90;99.90;;;;;;5040176;22;20224;-63
2021/11/03 04:27:43;;;;;;;2.28;1.23;;;4.90;99.90;;;;;;5050867;28;20193;-64
2021/11/03 04:30:14;;;;;;;1.35;1.25;;;4.80;99.90;;;;;;5050756;28;20191;-62
2021/11/03 04:32:43;;;;;;;1.05;0.93;;;4.90;99.90;;;;;;5051286;28;20583;-65
2021/11/03 04:35:12;;;;;;;1.23;1.13;;;4.80;99.90;;;;;;5051130;28;20187;-64
2021/11/03 04:37:42;;;;;;;1.20;0.88;;;4.80;99.90;;;;;;5052477;28;20629;-63
2021/11/03 04:40:15;;;;;;;1.33;0.90;;;4.70;99.90;;;;;;5050535;28;20258;-63
2021/11/03 04:42:43;;;;;;;4.30;1.02;;;4.70;99.90;;;;;;5050205;28;20209;-63
2021/11/03 04:45:14;;;;;;;1.10;0.90;;;4.70;99.90;;;;;;5050717;28;20181;-63
2021/11/03 04:47:43;;;;;;;0.80;0.65;;;4.60;99.90;;;;;;5052123;28;20310;-64
2021/11/03 04:50:16;;;;;;;0.93;0.80;;;4.70;99.90;;;;;;5050536;28;20231;-63
2021/11/03 04:52:46;;;;;;;0.80;0.60;;;4.60;99.90;;;;;;5050211;28;20697;-64
2021/11/03 04:55:15;;;;;;;1.30;0.75;;;4.60;99.90;;;;;;5050016;28;20196;-63
2021/11/03 04:57:43;;;;;;;0.80;0.50;;;4.50;99.90;;;;;;5050232;28;20213;-65
2021/11/03 05:00:19;;;;;;;2.33;0.95;;;4.50;99.90;;;;;;5050359;28;20192;-64
2021/11/03 05:02:48;;;;;;;0.80;0.50;;;4.50;99.90;;;;;;5051150;28;20216;-64
2021/11/03 05:05:17;;;;;;;4.57;1.48;;;4.40;99.90;;;;;;5050240;28;20181;-63
2021/11/03 05:07:47;;;;;;;0.80;0.50;;;4.50;99.90;;;;;;5051646;28;20169;-63
2021/11/03 05:10:18;;;;;;;1.05;0.70;;;4.50;99.90;;;;;;5050121;28;20823;-63
2021/11/03 05:12:47;;;;;;;1.50;1.40;;;4.70;99.90;;;;;;5049855;28;20212;-64
2021/11/03 05:15:15;;;;;;;0.90;0.80;;;4.70;99.90;;;;;;5050151;28;20263;-63
2021/11/03 05:17:45;;;;;;;1.27;0.80;;;4.70;99.90;;;;;;5049929;28;20231;-62
2021/11/03 05:20:16;;;;;;;1.00;0.77;;;4.70;99.90;;;;;;5051378;28;20174;-63
2021/11/03 05:22:47;;;;;;;0.80;0.50;;;4.60;99.90;;;;;;5050027;28;20243;-63
2021/11/03 05:25:18;;;;;;;0.80;0.60;;;4.40;99.90;;;;;;5050787;28;20188;-63
2021/11/03 05:27:47;;;;;;;2.05;0.90;;;4.30;99.90;;;;;;5050979;28;20169;-63
2021/11/03 05:30:19;;;;;;;1.40;1.30;;;4.40;99.90;;;;;;5051347;28;20197;-63
2021/11/03 05:32:48;;;;;;;0.90;0.63;;;4.50;99.90;;;;;;5051060;28;20517;-63
2021/11/03 05:35:17;;;;;;;1.52;1.15;;;4.60;99.90;;;;;;5051121;28;20600;-65
2021/11/03 05:37:46;;;;;;;1.10;0.70;;;4.60;99.90;;;;;;5051101;28;20200;-63
2021/11/03 05:40:18;;;;;;;0.80;0.60;;;4.60;99.90;;;;;;5050810;28;20180;-63
2021/11/03 05:42:46;;;;;;;0.90;0.70;;;4.60;99.90;;;;;;5051001;28;20500;-64
2021/11/03 05:45:14;;;;;;;0.90;0.60;;;4.60;99.90;;;;;;5050806;28;20189;-63
2021/11/03 05:47:43;;;;;;;1.20;0.70;;;4.60;99.90;;;;;;5051926;28;20177;-64
2021/11/03 05:50:17;;;;;;;0.80;0.50;;;4.60;99.90;;;;;;5054826;28;20582;-62
2021/11/03 05:52:47;;;;;;;1.00;0.70;;;4.50;99.90;;;;;;5054804;28;20283;-63
2021/11/03 05:55:16;;;;;;;1.95;1.33;;;4.60;99.90;;;;;;5054746;28;20181;-63
2021/11/03 05:57:52;;;;;;;1.00;0.77;;;4.60;99.90;;;;;;5054451;28;20205;-62
2021/11/03 06:00:24;;;;;;;1.85;0.80;;;4.60;99.90;;;;;;5053269;28;20185;-63
2021/11/03 06:02:52;;;;;;;2.13;1.70;;;4.50;99.90;;;;;;5053187;28;20216;-63
2021/11/03 06:05:21;;;;;;;0.93;0.82;;;4.50;99.90;;;;;;5054593;28;20208;-62
2021/11/03 06:07:53;;;;;;;1.13;1.02;;;4.50;99.90;;;;;;5054514;28;20173;-64
2021/11/03 06:10:28;;;;;;;0.90;0.77;;;4.40;99.90;;;;;;5054541;28;20169;-64
2021/11/03 06:12:57;;;;;;;1.65;1.15;;;4.50;99.90;;;;;;5054135;28;20228;-63
2021/11/03 06:15:27;;;;;;;1.00;0.77;;;4.60;99.90;;;;;;5054976;28;20268;-64
2021/11/03 06:17:56;;;;;;;0.80;0.50;;;4.60;99.90;;;;;;5054365;28;20200;-63
2021/11/03 06:20:25;;;;;;;1.00;0.85;;;4.60;99.90;;;;;;5054492;28;20185;-62
2021/11/03 06:22:54;;;;;;;1.90;1.05;;;4.70;99.90;;;;;;5054519;28;20216;-63
2021/11/03 06:25:24;;;;;;;0.90;0.60;;;4.70;99.90;;;;;;5053984;28;20196;-64
2021/11/03 06:27:53;;;;;;;0.88;0.73;;;4.70;99.90;;;;;;5053871;28;20244;-64
2021/11/03 06:30:24;;;;;;;0.90;0.75;;;4.70;99.90;;;;;;5053882;28;20196;-62
2021/11/03 06:32:52;;;;;;;0.80;0.50;;;4.80;99.90;;;;;;5053870;28;20205;-63
2021/11/03 06:35:22;;;;;;;0.90;0.70;;;4.80;99.90;;;;;;5053991;28;20540;-65
2021/11/03 06:37:51;;;;;;;0.80;0.50;;;4.90;99.90;;;;;;5053750;28;20284;-63
2021/11/03 06:40:23;;;;;;;0.80;0.50;;;4.80;99.90;;;;;;5053747;28;20219;-63
2021/11/03 06:42:52;;;;;;;0.80;0.50;;;4.80;99.90;;;;;;5053761;28;20239;-63
2021/11/03 06:45:20;;;;;;;1.13;0.80;;;4.80;99.90;;;;;;5053968;28;20595;-64
2021/11/03 06:47:50;;;;;;;1.60;0.95;;;4.80;99.90;;;;;;5053794;28;20529;-61
2021/11/03 06:50:22;;;;;;;1.65;1.55;;;4.80;99.90;;;;;;5054320;28;20173;-64
2021/11/03 06:52:51;;;;;;;1.00;0.85;;;4.90;99.90;;;;;;5053523;28;20629;-64
2021/11/03 06:55:22;;;;;;;2.55;1.45;;;5.00;99.90;;;;;;5053382;28;20622;-65
2021/11/03 06:57:50;;;;;;;0.90;0.75;;;5.00;99.90;;;;;;5053474;28;20204;-64
2021/11/03 07:00:24;;;;;;;1.60;1.00;;;5.10;99.90;;;;;;5053215;28;20307;-63
2021/11/03 07:02:53;;;;;;;0.90;0.60;;;5.20;99.90;;;;;;5052917;28;20216;-63
2021/11/03 07:05:22;;;;;;;1.40;1.02;;;5.20;99.90;;;;;;5053319;28;20193;-66
2021/11/03 07:07:52;;;;;;;0.98;0.70;;;5.20;99.90;;;;;;5053305;28;20579;-62
2021/11/03 07:10:24;;;;;;;0.80;0.65;;;5.10;99.90;;;;;;5054202;28;20240;-63
2021/11/03 07:12:52;;;;;;;2.35;0.80;;;5.20;99.90;;;;;;5051989;28;20252;-65
2021/11/03 07:15:21;;;;;;;0.80;0.50;;;5.30;99.90;;;;;;5052947;28;20574;-64
2021/11/03 07:17:50;;;;;;;0.80;0.60;;;5.50;99.90;;;;;;5053350;28;20600;-64
2021/11/03 07:20:19;;;;;;;1.23;0.73;;;5.70;99.90;;;;;;5053095;28;20234;-63
2021/11/03 07:22:47;;;;;;;0.98;0.73;;;5.80;99.90;;;;;;5052784;28;20574;-63
2021/11/03 07:25:18;;;;;;;3.53;1.35;;;6.00;99.90;;;;;;5052821;28;20200;-64
2021/11/03 07:27:50;;;;;;;0.88;0.73;;;6.20;99.90;;;;;;5053048;28;20173;-64
2021/11/03 07:30:20;;;;;;;2.03;1.20;;;6.30;99.90;;;;;;5053232;28;20235;-64
2021/11/03 07:32:49;;;;;;;1.13;0.95;;;6.30;99.90;;;;;;5052970;28;20731;-63
2021/11/03 07:35:17;;;;;;;0.90;0.77;;;6.40;99.90;;;;;;5052800;28;20184;-64
2021/11/03 07:37:49;;;;;;;1.05;0.95;;;6.50;99.90;;;;;;5052413;28;20192;-66
2021/11/03 07:40:21;;;;;;;1.00;0.70;;;6.60;99.90;;;;;;5052820;28;20243;-63
2021/11/03 07:42:52;;;;;;;12.88;1.45;;;6.80;99.90;;;;;;5052587;28;20223;-60
2021/11/03 07:45:21;;;;;;;0.90;0.70;;;7.00;99.90;;;;;;5052805;28;20185;-64
2021/11/03 07:47:49;;;;;;;0.90;0.70;;;7.10;99.90;;;;;;5052596;28;20173;-64
2021/11/03 07:50:21;;;;;;;1.17;1.08;;;7.10;99.90;;;;;;5052529;28;20260;-65
2021/11/03 07:52:49;;;;;;;1.70;1.60;;;7.20;99.90;;;;;;5052420;28;20380;-64
2021/11/03 07:55:17;;;;;;;1.20;1.08;;;7.40;99.90;;;;;;5050914;28;20192;-65
2021/11/03 07:57:46;;;;;;;1.20;1.08;;;7.50;99.90;;;;;;5052409;28;20204;-64
2021/11/03 08:00:22;;;;;;;1.08;0.60;;;7.50;99.90;;;;;;5050997;28;20665;-64
2021/11/03 08:02:51;;;;;;;0.95;0.57;;;7.50;99.90;;;;;;5051045;28;20246;-62
2021/11/03 08:05:19;;;;;;;2.40;1.05;;;7.40;99.90;;;;;;5052203;28;20242;-64
2021/11/03 08:07:47;;;;;;;7.40;1.48;;;7.50;99.90;;;;;;5052418;28;20200;-64
2021/11/03 08:10:18;;;;;;;1.73;1.40;;;7.60;99.90;;;;;;5051684;28;20192;-63
2021/11/03 08:12:47;;;;;;;0.95;0.82;;;7.60;99.90;;;;;;5052067;28;20299;-64
2021/11/03 08:15:16;;;;;;;4.10;2.45;;;7.70;99.90;;;;;;5051633;28;20234;-64
2021/11/03 08:17:45;;;;;;;1.45;1.30;;;7.60;99.90;;;;;;5051729;28;20677;-63
2021/11/03 08:20:20;;;;;;;0.90;0.60;;;7.70;99.90;;;;;;5051793;28;20196;-64
2021/11/03 08:22:49;;;;;;;0.80;0.60;;;7.80;99.90;;;;;;5051897;28;20234;-62
2021/11/03 08:25:17;;;;;;;2.20;0.95;;;7.80;99.90;;;;;;5051385;28;20200;-64
2021/11/03 08:27:45;;;;;;;0.80;0.50;;;7.90;99.90;;;;;;5051498;28;20550;-64
2021/11/03 08:30:15;;;;;;;1.70;1.08;;;7.90;99.90;;;;;;5051546;28;20311;-63
2021/11/03 08:32:48;;;;;;;1.27;0.85;;;8.00;99.90;;;;;;5050680;28;20224;-63
2021/11/03 08:35:18;;;;;;;1.52;0.90;;;8.00;99.90;;;;;;5051966;28;20309;-63
2021/11/03 08:37:48;;;;;;;1.08;0.70;;;8.10;99.90;;;;;;5051621;28;20200;-63
2021/11/03 08:40:18;;;;;;;4.13;1.63;;;8.10;99.90;;;;;;5051724;28;20176;-64
2021/11/03 08:42:50;;;;;;;1.95;0.85;;;8.20;99.90;;;;;;5051451;28;20201;-63
2021/11/03 08:45:18;;;;;;;2.30;1.00;;;8.30;99.90;;;;;;5051374;28;20200;-64
2021/11/03 08:47:53;;;;;;;1.38;1.08;;;8.30;99.90;;;;;;5051576;28;20215;-63
2021/11/03 08:50:25;;;;;;;1.73;1.63;;;8.30;99.90;;;;;;5051414;28;20657;-63
2021/11/03 08:52:53;;;;;;;1.27;0.85;;;8.20;99.90;;;;;;5051428;28;20299;-66
2021/11/03 08:55:23;;;;;;;4.22;2.05;;;8.40;99.90;;;;;;5051745;28;20527;-64
2021/11/03 08:57:52;;;;;;;1.65;0.70;;;8.50;99.90;;;;;;5051343;28;20196;-64
2021/11/03 09:00:25;;;;;;;1.10;0.70;;;8.70;99.90;;;;;;5050081;28;20593;-61
2021/11/03 09:02:55;;;;;;;1.38;0.80;;;8.80;99.90;;;;;;5051401;28;20212;-66
2021/11/03 09:05:24;;;;;;;1.10;0.90;;;8.90;99.90;;;;;;5050071;28;20192;-64
2021/11/03 09:07:52;;;;;;;2.20;1.25;;;8.80;99.90;;;;;;5051321;28;20250;-61
2021/11/03 09:10:24;;;;;;;2.30;1.40;;;8.90;99.90;;;;;;5051683;28;20181;-64
2021/11/03 09:12:52;;;;;;;0.90;0.70;;;9.10;99.90;;;;;;5051396;28;20736;-61
2021/11/03 09:15:22;;;;;;;1.77;1.58;;;9.30;99.90;;;;;;5051411;28;20238;-64
2021/11/03 09:17:55;;;;;;;5.28;1.27;;;9.30;99.90;;;;;;5051537;28;20595;-63
2021/11/03 09:20:24;;;;;;;3.40;1.73;;;9.40;99.90;;;;;;5051613;28;20239;-63
2021/11/03 09:22:52;;;;;;;2.17;1.60;;;9.40;99.90;;;;;;5054388;28;20216;-65
2021/11/03 09:25:23;;;;;;;1.23;1.10;;;9.60;99.90;;;;;;5055607;28;20795;-65
2021/11/03 09:27:52;;;;;;;4.60;1.17;;;9.70;99.90;;;;;;5055224;28;20201;-62
2021/11/03 09:30:23;;;;;;;1.57;1.47;;;9.90;99.90;;;;;;5055554;28;20184;-63
2021/11/03 09:33:00;;;;;;;1.00;0.80;;;10.00;99.90;;;;;;5055385;28;20439;-62
2021/11/03 09:35:35;;;;;;;1.20;0.60;;;10.10;99.90;;;;;;5055379;28;20591;-62
2021/11/03 09:38:05;;;;;;;2.10;0.90;;;10.40;99.90;;;;;;5055728;28;20525;-65
2021/11/03 09:40:36;;;;;;;1.10;0.80;;;10.50;99.90;;;;;;5054667;28;20415;-62
2021/11/03 09:43:13;;;;;;;2.77;0.87;;;10.60;99.90;;;;;;5054614;28;20453;-63
2021/11/03 09:45:42;;;;;;;2.03;1.27;;;10.70;99.90;;;;;;5054808;28;20534;-63
2021/11/03 09:48:20;;;;;;;2.50;0.93;;;10.80;99.90;;;;;;5054809;28;20416;-64
2021/11/03 09:50:51;;;;;;;0.90;0.60;;;10.80;99.90;;;;;;5054902;28;20439;-65
2021/11/03 09:53:26;;;;;;;2.50;0.80;;;11.00;99.90;;;;;;5054437;28;20444;-64
2021/11/03 09:55:55;;;;;;;0.90;0.60;;;11.00;99.90;;;;;;5054639;28;20911;-65
2021/11/03 09:58:41;;;;;;;3.47;0.97;;;11.10;99.90;;;;;;5054509;28;20459;-63
2021/11/03 10:01:20;;;;;;;1.57;0.80;;;11.10;99.90;;;;;;5054565;28;20513;-64
2021/11/03 10:04:10;;;;;;;1.37;0.90;;;11.10;99.90;;;;;;5054187;28;20421;-64
2021/11/03 10:06:51;;;;;;;2.33;2.13;;;11.10;99.90;;;;;;5053132;28;20499;-64
2021/11/03 10:09:19;;;;;;;1.63;0.83;;;11.10;99.90;;;;;;5054366;28;20390;-64
2021/11/03 10:11:50;;;;;;;1.73;0.73;;;11.10;99.90;;;;;;5054428;28;20969;-64
2021/11/03 10:14:18;;;;;;;3.60;1.10;;;11.30;99.90;;;;;;5054369;28;20807;-65
2021/11/03 10:16:50;;;;;;;3.83;1.50;;;11.40;99.90;;;;;;5054598;28;20437;-63
2021/11/03 10:19:29;;;;;;;4.40;1.63;;;11.40;99.90;;;;;;5054790;28;20434;-63
2021/11/03 10:22:00;;;;;;;1.50;1.40;;;11.40;99.90;;;;;;5054106;28;20427;-66
2021/11/03 10:24:36;;;;;;;1.40;0.90;;;11.40;99.90;;;;;;5054206;28;20401;-63
2021/11/03 10:27:18;;;;;;;1.37;0.60;;;11.10;99.90;;;;;;5054340;28;20428;-66
2021/11/03 10:29:49;;;;;;;1.33;0.70;;;11.00;99.90;;;;;;5054237;28;20386;-64
2021/11/03 10:32:27;;;;;;;1.70;1.10;;;11.00;99.90;;;;;;5064227;22;20479;-70
2021/11/03 10:35:14;;;;;;;1.20;1.00;;;10.90;99.90;;;;;;5052593;28;20434;-72
2021/11/03 10:37:47;;;;;;;2.90;2.70;;;10.80;99.90;;;;;;5054766;28;20415;-75
2021/11/03 10:40:26;;;;;;;2.23;1.00;;;10.80;99.90;;;;;;5036655;28;20528;-73
2021/11/03 10:43:00;;;;;;;2.20;1.53;;;10.80;99.90;;;;;;5034276;28;20424;-72
2021/11/03 10:45:32;;;;;;;3.50;1.47;;;10.90;99.90;;;;;;5016526;28;20432;-72
2021/11/03 10:48:22;;;;;;;1.53;1.03;;;11.00;99.90;;;;;;5034384;28;20390;-71
2021/11/03 10:51:20;;;;;;;1.30;0.67;;;11.00;99.90;;;;;;5034358;28;20444;-73
2021/11/03 10:53:53;;;;;;;3.17;1.77;;;11.30;99.90;;;;;;4988972;28;20443;-73
2021/11/03 10:56:27;;;;;;;3.10;0.87;;;11.20;99.90;;;;;;5034064;28;20939;-72
2021/11/03 10:59:03;;;;;;;1.00;0.60;;;11.10;99.90;;;;;;5034119;28;20485;-72
2021/11/03 11:01:37;;;;;;;1.10;0.93;;;11.30;99.90;;;;;;5015946;28;20556;-73
2021/11/03 11:04:11;;;;;;;1.20;1.10;;;11.40;99.90;;;;;;5035369;28;20431;-73
2021/11/03 11:06:46;;;;;;;1.40;0.70;;;11.70;99.90;;;;;;5033821;28;20742;-71
2021/11/03 11:09:26;;;;;;;0.93;0.60;;;11.70;99.90;;;;;;5034011;28;20423;-72
2021/11/03 11:12:04;;;;;;;0.80;0.50;;;12.00;99.90;;;;;;5034087;28;20539;-73
2021/11/03 11:14:34;;;;;;;4.20;1.23;;;12.00;99.90;;;;;;5034396;28;20988;-73
2021/11/03 11:17:09;;;;;;;1.73;1.63;;;12.00;99.90;;;;;;5033930;28;20511;-71
2021/11/03 11:19:47;;;;;;;1.00;0.77;;;12.00;99.90;;;;;;5033829;28;20452;-72
2021/11/03 11:22:34;;;;;;;2.47;1.30;;;11.80;99.90;;;;;;5034591;28;20936;-72
2021/11/03 11:25:11;;;;;;;2.20;0.90;;;11.90;99.90;;;;;;5034344;28;20441;-72
2021/11/03 11:27:59;;;;;;;1.47;1.37;;;12.00;99.90;;;;;;5036093;28;20498;-72
2021/11/03 11:30:39;;;;;;;2.40;1.03;;;12.30;99.90;;;;;;5039600;28;20480;-72
2021/11/03 11:33:17;;;;;;;3.30;1.97;;;12.40;99.90;;;;;;5041625;28;20420;-71
2021/11/03 11:35:55;;;;;;;1.30;1.00;;;12.40;99.90;;;;;;5033634;28;20401;-72
2021/11/03 11:38:36;;;;;;;1.47;1.00;;;12.40;99.90;;;;;;5034842;28;20383;-71
2021/11/03 11:41:11;;;;;;;1.57;1.47;;;12.50;99.90;;;;;;5034146;28;20492;-71
2021/11/03 11:43:45;;;;;;;2.93;0.80;;;12.60;99.90;;;;;;5018671;28;20418;-71
2021/11/03 11:46:16;;;;;;;1.20;0.97;;;12.60;99.90;;;;;;4993818;28;20455;-72
2021/11/03 11:48:46;;;;;;;3.03;0.90;;;12.60;99.90;;;;;;4995032;28;20410;-72
2021/11/03 11:51:23;;;;;;;1.60;0.60;;;12.70;99.90;;;;;;4995134;28;20989;-72
2021/11/03 11:54:18;;;;;;;1.20;1.00;;;12.90;99.90;;;;;;4993715;28;20419;-73
2021/11/03 11:57:25;;;;;;;2.37;1.10;;;13.00;99.90;;;;;;4993762;28;20429;-72
2021/11/03 12:00:10;;;;;;;1.10;0.70;;;13.00;99.90;;;;;;4993332;28;20439;-73
2021/11/03 12:03:05;;;;;;;1.53;0.87;;;13.00;99.90;;;;;;4993402;28;20533;-72
2021/11/03 12:05:56;;;;;;;1.03;0.53;;;13.00;99.90;;;;;;4993648;28;20443;-72
2021/11/03 12:08:28;;;;;;;1.00;0.70;;;13.10;99.90;;;;;;4993382;28;20547;-74
2021/11/03 12:11:20;;;;;;;0.97;0.73;;;13.20;99.90;;;;;;4993483;28;20492;-72
2021/11/03 12:14:20;;;;;;;1.30;1.20;;;13.20;99.90;;;;;;4992832;28;20920;-71
2021/11/03 12:17:16;;;;;;;1.50;0.83;;;12.90;99.90;;;;;;4993573;28;20437;-72
2021/11/03 12:19:53;;;;;;;1.00;0.70;;;12.60;99.90;;;;;;4994503;28;20440;-72
2021/11/03 12:22:49;;;;;;;0.90;0.73;;;12.50;99.90;;;;;;4994742;28;20441;-72
2021/11/03 12:25:43;;;;;;;1.30;1.10;;;12.40;99.90;;;;;;4995625;28;20430;-71
2021/11/03 12:28:42;;;;;;;2.60;1.20;;;12.30;99.90;;;;;;4995893;28;20777;-72
2021/11/03 12:31:23;;;;;;;2.40;0.60;;;12.30;99.90;;;;;;4996776;28;20477;-72
2021/11/03 12:34:17;;;;;;;0.90;0.67;;;12.20;99.90;;;;;;4996846;28;20422;-71
2021/11/03 12:37:18;;;;;;;1.27;0.63;;;12.10;99.90;;;;;;4995816;28;20400;-73
2021/11/03 12:40:19;;;;;;;2.33;0.87;;;12.20;99.90;;;;;;4994625;28;20428;-71
2021/11/03 12:42:59;;;;;;;1.57;1.37;;;12.30;99.90;;;;;;4994306;28;20785;-73
2021/11/03 12:45:34;;;;;;;1.20;0.67;;;12.20;99.90;;;;;;4994243;28;20832;-72
2021/11/03 12:48:04;;;;;;;0.90;0.60;;;12.20;99.90;;;;;;4993516;28;20396;-71
2021/11/03 12:50:38;;;;;;;2.73;1.00;;;12.20;99.90;;;;;;4993165;28;20425;-72
2021/11/03 12:53:12;;;;;;;1.10;1.00;;;12.30;99.90;;;;;;4992800;28;20422;-72
2021/11/03 12:55:47;;;;;;;0.90;0.50;;;12.40;99.90;;;;;;4993068;28;20456;-71
2021/11/03 12:58:28;;;;;;;1.10;1.00;;;12.60;99.90;;;;;;4995656;28;20425;-71
2021/11/03 13:00:58;;;;;;;0.93;0.57;;;12.70;99.90;;;;;;5030776;28;20496;-71
2021/11/03 13:03:34;;;;;;;2.00;0.80;;;12.90;99.90;;;;;;5032247;28;20589;-71
2021/11/03 13:06:05;;;;;;;1.10;0.70;;;13.00;99.90;;;;;;5032015;28;20402;-70
2021/11/03 13:08:41;;;;;;;1.43;0.90;;;13.10;99.90;;;;;;5032067;28;20428;-70
2021/11/03 13:11:18;;;;;;;0.87;0.50;;;13.20;99.90;;;;;;5032386;28;20501;-72
2021/11/03 13:13:50;;;;;;;0.80;0.50;;;13.10;99.90;;;;;;5032325;28;20411;-72
2021/11/03 13:16:28;;;;;;;2.40;2.20;;;12.90;99.90;;;;;;5031653;28;20428;-72
2021/11/03 13:18:59;;;;;;;1.87;1.20;;;12.50;99.90;;;;;;5032422;28;20416;-70
2021/11/03 13:21:31;;;;;;;0.90;0.60;;;12.40;99.90;;;;;;5031885;28;20493;-71
2021/11/03 13:24:11;;;;;;;1.37;1.27;;;12.20;99.90;;;;;;5020801;28;20421;-71